sensor_id;sensor_type;location;lat;lon;timestamp;pressure;altitude;pressure_sealevel;temperature;humidity
13456;BME280;6800;50.940;6.940;2023-05-29T00:01:50;101219.84;;;25.69;36.07
13456;BME280;6800;50.940;6.940;2023-05-29T00:05:54;101220.94;;;26.90;33.98
13456;BME280;6800;50.940;6.940;2023-05-29T00:09:55;101231.41;;;26.16;35.59
13456;BME280;6800;50.940;6.940;2023-05-29T00:13:57;101238.44;;;25.54;36.23
13456;BME280;6800;50.940;6.940;2023-05-29T00:18:01;101240.31;;;26.00;35.48
13456;BME280;6800;50.940;6.940;2023-05-29T00:22:03;101232.25;;;25.62;36.01
13456;BME280;6800;50.940;6.940;2023-05-29T00:26:07;101235.44;;;25.25;36.82
13456;BME280;6800;50.940;6.940;2023-05-29T00:30:11;101241.41;;;24.70;37.72
13456;BME280;6800;50.940;6.940;2023-05-29T00:34:13;101241.41;;;25.67;35.66
13456;BME280;6800;50.940;6.940;2023-05-29T00:38:14;101239.69;;;24.53;38.26
13456;BME280;6800;50.940;6.940;2023-05-29T00:42:15;101232.38;;;23.88;39.44
13456;BME280;6800;50.940;6.940;2023-05-29T00:46:17;101238.78;;;24.78;37.71
13456;BME280;6800;50.940;6.940;2023-05-29T00:50:21;101239.44;;;24.97;37.22
13456;BME280;6800;50.940;6.940;2023-05-29T00:54:26;101231.03;;;25.64;35.66
13456;BME280;6800;50.940;6.940;2023-05-29T00:58:28;101242.00;;;23.73;39.19
13456;BME280;6800;50.940;6.940;2023-05-29T01:02:30;101243.84;;;25.93;35.27
13456;BME280;6800;50.940;6.940;2023-05-29T01:06:40;101246.88;;;25.90;35.43
13456;BME280;6800;50.940;6.940;2023-05-29T01:10:45;101249.41;;;24.70;37.21
13456;BME280;6800;50.940;6.940;2023-05-29T01:23:52;101249.81;;;25.48;35.88
13456;BME280;6800;50.940;6.940;2023-05-29T01:27:54;101247.44;;;24.97;36.32
13456;BME280;6800;50.940;6.940;2023-05-29T01:31:58;101247.94;;;25.32;36.39
13456;BME280;6800;50.940;6.940;2023-05-29T01:35:59;101259.44;;;25.81;35.21
13456;BME280;6800;50.940;6.940;2023-05-29T01:40:01;101272.72;;;22.98;40.38
13456;BME280;6800;50.940;6.940;2023-05-29T01:44:06;101269.91;;;23.61;38.65
13456;BME280;6800;50.940;6.940;2023-05-29T01:48:11;101277.34;;;24.34;37.61
13456;BME280;6800;50.940;6.940;2023-05-29T01:52:14;101274.88;;;25.55;35.17
13456;BME280;6800;50.940;6.940;2023-05-29T01:56:16;101281.06;;;25.23;35.00
13456;BME280;6800;50.940;6.940;2023-05-29T02:00:17;101275.53;;;25.33;34.99
13456;BME280;6800;50.940;6.940;2023-05-29T02:04:20;101281.72;;;25.17;35.26
13456;BME280;6800;50.940;6.940;2023-05-29T02:08:24;101284.03;;;24.38;36.65
13456;BME280;6800;50.940;6.940;2023-05-29T02:12:26;101286.53;;;24.90;35.51
13456;BME280;6800;50.940;6.940;2023-05-29T02:16:27;101296.75;;;24.52;35.64
13456;BME280;6800;50.940;6.940;2023-05-29T02:20:29;101297.09;;;23.64;37.27
13456;BME280;6800;50.940;6.940;2023-05-29T02:24:30;101295.91;;;24.10;36.53
13456;BME280;6800;50.940;6.940;2023-05-29T02:28:32;101311.78;;;22.26;39.89
13456;BME280;6800;50.940;6.940;2023-05-29T02:32:36;101315.16;;;24.22;36.13
13456;BME280;6800;50.940;6.940;2023-05-29T02:36:37;101323.03;;;22.74;39.09
13456;BME280;6800;50.940;6.940;2023-05-29T02:40:39;101316.84;;;23.54;37.34
13456;BME280;6800;50.940;6.940;2023-05-29T02:44:40;101318.06;;;24.36;36.01
13456;BME280;6800;50.940;6.940;2023-05-29T02:48:42;101316.81;;;23.97;36.25
13456;BME280;6800;50.940;6.940;2023-05-29T02:52:43;101314.13;;;23.71;36.79
13456;BME280;6800;50.940;6.940;2023-05-29T02:56:45;101316.03;;;23.36;37.82
13456;BME280;6800;50.940;6.940;2023-05-29T03:00:47;101318.50;;;21.64;40.85
13456;BME280;6800;50.940;6.940;2023-05-29T03:04:48;101324.06;;;23.44;37.64
13456;BME280;6800;50.940;6.940;2023-05-29T03:08:53;101318.03;;;24.02;36.01
13456;BME280;6800;50.940;6.940;2023-05-29T03:12:54;101329.59;;;21.12;41.76
13456;BME280;6800;50.940;6.940;2023-05-29T03:16:56;101329.91;;;22.77;39.05
13456;BME280;6800;50.940;6.940;2023-05-29T03:20:58;101324.09;;;23.87;36.72
13456;BME280;6800;50.940;6.940;2023-05-29T03:25:00;101334.66;;;23.53;37.35
13456;BME280;6800;50.940;6.940;2023-05-29T03:29:01;101332.84;;;23.36;37.22
13456;BME280;6800;50.940;6.940;2023-05-29T03:33:03;101337.66;;;21.97;40.84
13456;BME280;6800;50.940;6.940;2023-05-29T03:37:05;101338.22;;;23.26;37.62
13456;BME280;6800;50.940;6.940;2023-05-29T03:41:06;101339.25;;;22.53;39.27
13456;BME280;6800;50.940;6.940;2023-05-29T03:45:08;101348.66;;;22.11;40.15
13456;BME280;6800;50.940;6.940;2023-05-29T03:49:09;101344.72;;;23.24;38.17
13456;BME280;6800;50.940;6.940;2023-05-29T03:53:11;101346.84;;;22.12;40.38
13456;BME280;6800;50.940;6.940;2023-05-29T03:57:12;101350.06;;;20.21;44.56
13456;BME280;6800;50.940;6.940;2023-05-29T04:01:14;101355.84;;;20.05;44.23
13456;BME280;6800;50.940;6.940;2023-05-29T04:05:15;101354.28;;;20.23;44.51
13456;BME280;6800;50.940;6.940;2023-05-29T04:09:16;101369.09;;;20.26;44.14
13456;BME280;6800;50.940;6.940;2023-05-29T04:13:19;101372.56;;;20.96;42.76
13456;BME280;6800;50.940;6.940;2023-05-29T04:17:20;101376.38;;;19.51;46.16
13456;BME280;6800;50.940;6.940;2023-05-29T04:21:22;101380.19;;;19.26;46.41
13456;BME280;6800;50.940;6.940;2023-05-29T04:25:23;101371.13;;;20.43;43.75
13456;BME280;6800;50.940;6.940;2023-05-29T04:29:25;101366.97;;;20.90;42.70
13456;BME280;6800;50.940;6.940;2023-05-29T04:33:27;101377.06;;;20.05;44.81
13456;BME280;6800;50.940;6.940;2023-05-29T04:37:30;101390.16;;;22.31;40.18
13456;BME280;6800;50.940;6.940;2023-05-29T04:41:33;101385.56;;;22.24;40.15
13456;BME280;6800;50.940;6.940;2023-05-29T04:45:34;101396.00;;;21.60;41.57
13456;BME280;6800;50.940;6.940;2023-05-29T04:49:39;101407.00;;;20.77;43.31
13456;BME280;6800;50.940;6.940;2023-05-29T04:53:40;101395.16;;;21.31;41.01
13456;BME280;6800;50.940;6.940;2023-05-29T04:57:42;101402.84;;;21.24;41.65
13456;BME280;6800;50.940;6.940;2023-05-29T05:01:44;101409.22;;;23.00;38.82
13456;BME280;6800;50.940;6.940;2023-05-29T05:05:48;101404.88;;;23.62;37.40
13456;BME280;6800;50.940;6.940;2023-05-29T05:09:50;101409.41;;;21.20;42.29
13456;BME280;6800;50.940;6.940;2023-05-29T05:13:52;101396.81;;;23.54;37.70
13456;BME280;6800;50.940;6.940;2023-05-29T05:17:53;101395.09;;;24.31;36.19
13456;BME280;6800;50.940;6.940;2023-05-29T05:21:54;101401.81;;;25.11;34.86
13456;BME280;6800;50.940;6.940;2023-05-29T05:25:56;101418.94;;;24.58;35.13
13456;BME280;6800;50.940;6.940;2023-05-29T05:29:57;101416.34;;;23.27;37.89
13456;BME280;6800;50.940;6.940;2023-05-29T05:33:59;101416.63;;;24.63;35.28
13456;BME280;6800;50.940;6.940;2023-05-29T05:38:01;101397.88;;;26.27;32.18
13456;BME280;6800;50.940;6.940;2023-05-29T05:42:02;101410.88;;;25.34;33.63
13456;BME280;6800;50.940;6.940;2023-05-29T05:46:04;101417.72;;;24.19;36.49
13456;BME280;6800;50.940;6.940;2023-05-29T05:50:06;101419.50;;;27.12;30.87
13456;BME280;6800;50.940;6.940;2023-05-29T05:54:07;101423.75;;;26.98;30.98
13456;BME280;6800;50.940;6.940;2023-05-29T05:58:08;101426.00;;;27.17;30.64
13456;BME280;6800;50.940;6.940;2023-05-29T06:02:12;101417.66;;;28.40;29.05
13456;BME280;6800;50.940;6.940;2023-05-29T06:06:14;101416.66;;;28.41;28.78
13456;BME280;6800;50.940;6.940;2023-05-29T06:10:15;101404.59;;;29.31;27.62
13456;BME280;6800;50.940;6.940;2023-05-29T06:14:17;101415.16;;;29.89;27.22
13456;BME280;6800;50.940;6.940;2023-05-29T06:18:18;101422.34;;;29.25;27.96
13456;BME280;6800;50.940;6.940;2023-05-29T06:22:20;101425.63;;;29.42;27.95
13456;BME280;6800;50.940;6.940;2023-05-29T06:26:21;101425.53;;;30.48;26.14
13456;BME280;6800;50.940;6.940;2023-05-29T06:30:22;101434.56;;;28.78;28.15
13456;BME280;6800;50.940;6.940;2023-05-29T06:34:24;101428.88;;;29.94;26.33
13456;BME280;6800;50.940;6.940;2023-05-29T06:38:25;101445.91;;;25.81;32.60
13456;BME280;6800;50.940;6.940;2023-05-29T06:42:27;101429.75;;;28.73;29.18
13456;BME280;6800;50.940;6.940;2023-05-29T06:46:28;101427.66;;;30.59;25.52
13456;BME280;6800;50.940;6.940;2023-05-29T06:50:30;101428.78;;;29.67;26.85
13456;BME280;6800;50.940;6.940;2023-05-29T06:54:31;101420.00;;;31.77;23.59
13456;BME280;6800;50.940;6.940;2023-05-29T06:58:33;101424.28;;;32.76;22.97
13456;BME280;6800;50.940;6.940;2023-05-29T07:02:35;101433.19;;;31.39;23.44
13456;BME280;6800;50.940;6.940;2023-05-29T07:06:36;101430.63;;;26.46;30.47
13456;BME280;6800;50.940;6.940;2023-05-29T07:10:38;101438.66;;;27.62;29.73
13456;BME280;6800;50.940;6.940;2023-05-29T07:14:39;101440.31;;;27.86;29.13
13456;BME280;6800;50.940;6.940;2023-05-29T07:18:41;101429.19;;;30.34;26.36
13456;BME280;6800;50.940;6.940;2023-05-29T07:22:44;101434.59;;;31.22;24.60
13456;BME280;6800;50.940;6.940;2023-05-29T07:26:45;101439.00;;;30.48;25.03
13456;BME280;6800;50.940;6.940;2023-05-29T07:30:47;101438.88;;;28.20;28.56
13456;BME280;6800;50.940;6.940;2023-05-29T07:34:48;101433.53;;;32.09;23.66
13456;BME280;6800;50.940;6.940;2023-05-29T07:38:51;101438.72;;;32.24;23.52
13456;BME280;6800;50.940;6.940;2023-05-29T07:42:54;101438.28;;;31.01;24.84
13456;BME280;6800;50.940;6.940;2023-05-29T07:46:56;101442.00;;;34.59;20.69
13456;BME280;6800;50.940;6.940;2023-05-29T07:51:00;101431.16;;;34.59;20.69
13456;BME280;6800;50.940;6.940;2023-05-29T07:55:02;101426.31;;;35.27;19.99
13456;BME280;6800;50.940;6.940;2023-05-29T07:59:04;101437.56;;;35.01;20.65
13456;BME280;6800;50.940;6.940;2023-05-29T08:03:06;101438.66;;;34.93;20.74
13456;BME280;6800;50.940;6.940;2023-05-29T08:07:08;101445.94;;;36.46;19.32
13456;BME280;6800;50.940;6.940;2023-05-29T08:11:10;101452.22;;;33.58;21.81
13456;BME280;6800;50.940;6.940;2023-05-29T08:15:12;101449.56;;;35.23;20.97
13456;BME280;6800;50.940;6.940;2023-05-29T08:19:14;101454.31;;;32.15;23.56
13456;BME280;6800;50.940;6.940;2023-05-29T08:23:15;101448.28;;;33.54;22.23
13456;BME280;6800;50.940;6.940;2023-05-29T08:27:17;101447.69;;;33.08;22.44
13456;BME280;6800;50.940;6.940;2023-05-29T08:31:18;101441.03;;;33.79;22.52
13456;BME280;6800;50.940;6.940;2023-05-29T08:35:20;101443.22;;;33.64;22.54
13456;BME280;6800;50.940;6.940;2023-05-29T08:39:21;101442.25;;;30.09;26.49
13456;BME280;6800;50.940;6.940;2023-05-29T08:43:23;101438.97;;;34.67;21.21
13456;BME280;6800;50.940;6.940;2023-05-29T08:47:26;101445.50;;;34.17;21.28
13456;BME280;6800;50.940;6.940;2023-05-29T08:51:31;101441.91;;;35.50;20.00
13456;BME280;6800;50.940;6.940;2023-05-29T08:55:35;101436.91;;;34.02;21.45
13456;BME280;6800;50.940;6.940;2023-05-29T08:59:43;101447.13;;;36.16;19.83
13456;BME280;6800;50.940;6.940;2023-05-29T09:03:46;101441.38;;;35.41;19.78
13456;BME280;6800;50.940;6.940;2023-05-29T09:07:48;101450.75;;;33.18;22.58
13456;BME280;6800;50.940;6.940;2023-05-29T09:11:50;101430.53;;;34.14;21.59
13456;BME280;6800;50.940;6.940;2023-05-29T09:15:57;101434.88;;;34.76;21.00
13456;BME280;6800;50.940;6.940;2023-05-29T09:19:59;101432.66;;;35.21;20.44
13456;BME280;6800;50.940;6.940;2023-05-29T09:24:05;101427.63;;;35.66;19.83
13456;BME280;6800;50.940;6.940;2023-05-29T09:28:10;101426.16;;;37.42;19.00
13456;BME280;6800;50.940;6.940;2023-05-29T09:32:15;101431.41;;;34.87;20.74
13456;BME280;6800;50.940;6.940;2023-05-29T09:36:21;101435.91;;;34.21;22.43
13456;BME280;6800;50.940;6.940;2023-05-29T09:40:23;101442.03;;;35.96;20.21
13456;BME280;6800;50.940;6.940;2023-05-29T09:44:26;101434.28;;;33.57;22.95
13456;BME280;6800;50.940;6.940;2023-05-29T09:48:29;101441.22;;;35.36;20.38
13456;BME280;6800;50.940;6.940;2023-05-29T09:52:30;101447.41;;;35.73;20.50
13456;BME280;6800;50.940;6.940;2023-05-29T09:56:33;101440.28;;;35.01;21.51
13456;BME280;6800;50.940;6.940;2023-05-29T10:00:35;101440.25;;;36.25;20.36
13456;BME280;6800;50.940;6.940;2023-05-29T10:04:37;101428.25;;;35.08;21.60
13456;BME280;6800;50.940;6.940;2023-05-29T10:08:46;101443.31;;;32.23;24.34
13456;BME280;6800;50.940;6.940;2023-05-29T10:12:51;101432.22;;;36.07;20.69
13456;BME280;6800;50.940;6.940;2023-05-29T10:16:52;101435.84;;;34.03;22.77
13456;BME280;6800;50.940;6.940;2023-05-29T10:20:56;101439.03;;;34.79;21.59
13456;BME280;6800;50.940;6.940;2023-05-29T10:24:59;101435.94;;;35.11;20.82
13456;BME280;6800;50.940;6.940;2023-05-29T10:29:07;101434.75;;;34.71;21.50
13456;BME280;6800;50.940;6.940;2023-05-29T10:37:54;101442.72;;;32.92;23.96
13456;BME280;6800;50.940;6.940;2023-05-29T10:41:54;101453.44;;;32.41;24.71
13456;BME280;6800;50.940;6.940;2023-05-29T10:46:00;101448.44;;;35.60;21.22
13456;BME280;6800;50.940;6.940;2023-05-29T10:50:02;101435.22;;;33.38;22.52
13456;BME280;6800;50.940;6.940;2023-05-29T10:54:05;101423.16;;;34.82;21.72
13456;BME280;6800;50.940;6.940;2023-05-29T10:58:08;101434.00;;;36.24;20.62
13456;BME280;6800;50.940;6.940;2023-05-29T11:02:17;101434.47;;;35.98;20.47
13456;BME280;6800;50.940;6.940;2023-05-29T11:06:21;101429.78;;;35.75;21.07
13456;BME280;6800;50.940;6.940;2023-05-29T11:10:55;101424.28;;;34.32;21.99
13456;BME280;6800;50.940;6.940;2023-05-29T11:15:02;101421.19;;;35.90;20.74
13456;BME280;6800;50.940;6.940;2023-05-29T11:19:05;101441.00;;;31.75;25.00
13456;BME280;6800;50.940;6.940;2023-05-29T11:23:07;101418.09;;;35.45;21.67
13456;BME280;6800;50.940;6.940;2023-05-29T11:27:10;101428.13;;;35.33;21.25
13456;BME280;6800;50.940;6.940;2023-05-29T11:31:13;101410.97;;;34.12;21.72
13456;BME280;6800;50.940;6.940;2023-05-29T11:35:17;101407.56;;;35.67;20.72
13456;BME280;6800;50.940;6.940;2023-05-29T11:39:20;101401.53;;;32.13;24.80
13456;BME280;6800;50.940;6.940;2023-05-29T11:43:22;101414.63;;;28.43;29.80
13456;BME280;6800;50.940;6.940;2023-05-29T11:47:24;101415.53;;;30.42;26.44
13456;BME280;6800;50.940;6.940;2023-05-29T11:51:26;101414.69;;;34.72;22.19
13456;BME280;6800;50.940;6.940;2023-05-29T11:55:27;101400.03;;;33.94;22.71
13456;BME280;6800;50.940;6.940;2023-05-29T11:59:29;101393.97;;;33.74;23.05
13456;BME280;6800;50.940;6.940;2023-05-29T12:03:40;101393.56;;;32.44;24.43
13456;BME280;6800;50.940;6.940;2023-05-29T12:07:52;101397.31;;;31.58;25.76
13456;BME280;6800;50.940;6.940;2023-05-29T12:12:01;101390.53;;;33.60;22.99
13456;BME280;6800;50.940;6.940;2023-05-29T12:16:04;101395.25;;;31.86;25.12
13456;BME280;6800;50.940;6.940;2023-05-29T12:20:06;101386.66;;;33.99;22.53
13456;BME280;6800;50.940;6.940;2023-05-29T12:24:13;101387.94;;;32.96;22.99
13456;BME280;6800;50.940;6.940;2023-05-29T12:28:16;101378.66;;;34.29;21.82
13456;BME280;6800;50.940;6.940;2023-05-29T12:32:21;101381.41;;;34.04;22.23
13456;BME280;6800;50.940;6.940;2023-05-29T12:36:25;101397.97;;;30.25;26.43
13456;BME280;6800;50.940;6.940;2023-05-29T12:40:29;101397.53;;;31.56;25.29
13456;BME280;6800;50.940;6.940;2023-05-29T12:44:31;101392.31;;;32.33;23.94
13456;BME280;6800;50.940;6.940;2023-05-29T12:48:33;101400.53;;;29.35;28.23
13456;BME280;6800;50.940;6.940;2023-05-29T12:52:40;101398.03;;;29.76;27.68
13456;BME280;6800;50.940;6.940;2023-05-29T12:56:41;101398.59;;;31.88;24.59
13456;BME280;6800;50.940;6.940;2023-05-29T13:00:43;101398.72;;;29.84;27.30
13456;BME280;6800;50.940;6.940;2023-05-29T13:04:45;101399.72;;;31.14;26.10
13456;BME280;6800;50.940;6.940;2023-05-29T13:08:47;101402.38;;;29.35;28.16
13456;BME280;6800;50.940;6.940;2023-05-29T13:12:49;101383.56;;;31.33;25.76
13456;BME280;6800;50.940;6.940;2023-05-29T13:16:55;101395.50;;;30.23;26.88
13456;BME280;6800;50.940;6.940;2023-05-29T13:20:56;101389.88;;;28.33;28.90
13456;BME280;6800;50.940;6.940;2023-05-29T13:24:58;101389.78;;;28.26;29.84
13456;BME280;6800;50.940;6.940;2023-05-29T13:29:00;101415.72;;;28.92;28.99
13456;BME280;6800;50.940;6.940;2023-05-29T13:33:01;101395.56;;;31.05;25.64
13456;BME280;6800;50.940;6.940;2023-05-29T13:37:03;101406.13;;;27.65;29.72
13456;BME280;6800;50.940;6.940;2023-05-29T13:41:05;101403.16;;;29.71;27.38
13456;BME280;6800;50.940;6.940;2023-05-29T13:45:08;101395.34;;;30.65;26.14
13456;BME280;6800;50.940;6.940;2023-05-29T13:49:09;101397.31;;;29.88;26.99
13456;BME280;6800;50.940;6.940;2023-05-29T13:53:11;101400.09;;;31.04;25.46
13456;BME280;6800;50.940;6.940;2023-05-29T13:57:12;101401.88;;;29.46;27.39
13456;BME280;6800;50.940;6.940;2023-05-29T14:01:16;101394.03;;;31.82;24.39
13456;BME280;6800;50.940;6.940;2023-05-29T14:05:20;101393.88;;;30.01;26.89
13456;BME280;6800;50.940;6.940;2023-05-29T14:09:23;101381.78;;;30.87;25.50
13456;BME280;6800;50.940;6.940;2023-05-29T14:13:28;101387.84;;;28.35;28.79
13456;BME280;6800;50.940;6.940;2023-05-29T14:17:30;101377.88;;;29.72;26.82
13456;BME280;6800;50.940;6.940;2023-05-29T14:21:31;101386.00;;;31.09;25.45
13456;BME280;6800;50.940;6.940;2023-05-29T14:25:33;101391.75;;;30.93;25.89
13456;BME280;6800;50.940;6.940;2023-05-29T14:29:34;101372.84;;;31.66;24.56
13456;BME280;6800;50.940;6.940;2023-05-29T14:33:35;101379.09;;;28.04;28.73
13456;BME280;6800;50.940;6.940;2023-05-29T14:37:37;101370.19;;;29.90;27.31
13456;BME280;6800;50.940;6.940;2023-05-29T14:41:39;101380.34;;;29.24;27.67
13456;BME280;6800;50.940;6.940;2023-05-29T14:45:40;101370.50;;;28.81;28.24
13456;BME280;6800;50.940;6.940;2023-05-29T14:49:42;101369.97;;;30.19;26.83
13456;BME280;6800;50.940;6.940;2023-05-29T14:53:43;101379.03;;;30.39;26.27
13456;BME280;6800;50.940;6.940;2023-05-29T14:57:45;101367.63;;;31.65;25.10
13456;BME280;6800;50.940;6.940;2023-05-29T15:01:46;101374.69;;;29.62;27.67
13456;BME280;6800;50.940;6.940;2023-05-29T15:05:48;101374.22;;;30.75;25.78
13456;BME280;6800;50.940;6.940;2023-05-29T15:09:49;101368.56;;;31.18;24.90
13456;BME280;6800;50.940;6.940;2023-05-29T15:13:50;101362.84;;;30.33;26.08
13456;BME280;6800;50.940;6.940;2023-05-29T15:17:52;101369.41;;;31.18;25.08
13456;BME280;6800;50.940;6.940;2023-05-29T15:21:57;101381.03;;;29.33;27.75
13456;BME280;6800;50.940;6.940;2023-05-29T15:26:01;101371.91;;;28.77;29.02
13456;BME280;6800;50.940;6.940;2023-05-29T15:30:14;101374.13;;;29.45;27.52
13456;BME280;6800;50.940;6.940;2023-05-29T15:34:16;101385.34;;;29.49;27.30
13456;BME280;6800;50.940;6.940;2023-05-29T15:38:18;101386.28;;;29.62;27.21
13456;BME280;6800;50.940;6.940;2023-05-29T15:42:19;101395.03;;;29.07;27.66
13456;BME280;6800;50.940;6.940;2023-05-29T15:46:21;101386.00;;;28.79;28.02
13456;BME280;6800;50.940;6.940;2023-05-29T15:50:22;101394.56;;;28.02;28.58
13456;BME280;6800;50.940;6.940;2023-05-29T15:54:24;101406.44;;;30.83;24.80
13456;BME280;6800;50.940;6.940;2023-05-29T15:58:25;101388.66;;;29.51;26.94
13456;BME280;6800;50.940;6.940;2023-05-29T16:02:27;101388.13;;;28.54;28.14
13456;BME280;6800;50.940;6.940;2023-05-29T16:06:28;101395.78;;;30.62;25.15
13456;BME280;6800;50.940;6.940;2023-05-29T16:10:29;101387.75;;;29.22;26.74
13456;BME280;6800;50.940;6.940;2023-05-29T16:14:32;101395.94;;;27.98;28.77
13456;BME280;6800;50.940;6.940;2023-05-29T16:18:33;101401.03;;;27.70;29.43
13456;BME280;6800;50.940;6.940;2023-05-29T16:22:35;101401.47;;;28.77;27.89
13456;BME280;6800;50.940;6.940;2023-05-29T16:26:43;101394.53;;;30.31;25.71
13456;BME280;6800;50.940;6.940;2023-05-29T16:30:44;101403.09;;;29.07;26.80
13456;BME280;6800;50.940;6.940;2023-05-29T16:34:46;101402.63;;;29.61;26.55
13456;BME280;6800;50.940;6.940;2023-05-29T16:38:47;101414.41;;;28.15;28.37
13456;BME280;6800;50.940;6.940;2023-05-29T16:42:49;101402.31;;;28.63;27.56
13456;BME280;6800;50.940;6.940;2023-05-29T16:46:50;101409.00;;;29.74;26.13
13456;BME280;6800;50.940;6.940;2023-05-29T16:50:52;101398.97;;;27.95;28.84
13456;BME280;6800;50.940;6.940;2023-05-29T16:54:53;101403.88;;;28.72;27.79
13456;BME280;6800;50.940;6.940;2023-05-29T16:58:57;101397.66;;;29.79;26.04
13456;BME280;6800;50.940;6.940;2023-05-29T17:02:58;101401.97;;;29.16;27.45
13456;BME280;6800;50.940;6.940;2023-05-29T17:07:00;101400.25;;;28.94;26.54
13456;BME280;6800;50.940;6.940;2023-05-29T17:11:01;101401.94;;;27.09;28.66
13456;BME280;6800;50.940;6.940;2023-05-29T17:15:06;101402.47;;;28.76;26.79
13456;BME280;6800;50.940;6.940;2023-05-29T17:19:07;101401.22;;;29.08;26.01
13456;BME280;6800;50.940;6.940;2023-05-29T17:23:09;101396.91;;;28.19;27.31
13456;BME280;6800;50.940;6.940;2023-05-29T17:27:10;101403.91;;;30.07;24.81
13456;BME280;6800;50.940;6.940;2023-05-29T17:31:12;101406.56;;;29.37;25.94
13456;BME280;6800;50.940;6.940;2023-05-29T17:35:13;101407.00;;;28.46;27.54
13456;BME280;6800;50.940;6.940;2023-05-29T17:39:15;101403.88;;;28.28;27.36
13456;BME280;6800;50.940;6.940;2023-05-29T17:43:16;101407.84;;;28.18;27.81
13456;BME280;6800;50.940;6.940;2023-05-29T17:47:17;101418.38;;;27.59;28.61
13456;BME280;6800;50.940;6.940;2023-05-29T17:51:19;101424.34;;;27.92;27.43
13456;BME280;6800;50.940;6.940;2023-05-29T17:55:25;101413.41;;;28.89;26.32
13456;BME280;6800;50.940;6.940;2023-05-29T17:59:28;101427.53;;;28.77;26.17
13456;BME280;6800;50.940;6.940;2023-05-29T18:03:29;101418.50;;;28.99;25.78
13456;BME280;6800;50.940;6.940;2023-05-29T18:07:31;101412.72;;;29.02;25.56
13456;BME280;6800;50.940;6.940;2023-05-29T18:11:33;101423.81;;;28.63;25.87
13456;BME280;6800;50.940;6.940;2023-05-29T18:15:34;101424.53;;;29.15;25.50
13456;BME280;6800;50.940;6.940;2023-05-29T18:19:36;101424.19;;;27.71;27.00
13456;BME280;6800;50.940;6.940;2023-05-29T18:23:37;101430.75;;;27.07;27.59
13456;BME280;6800;50.940;6.940;2023-05-29T18:27:39;101423.53;;;26.77;28.37
13456;BME280;6800;50.940;6.940;2023-05-29T18:31:40;101428.34;;;27.73;26.99
13456;BME280;6800;50.940;6.940;2023-05-29T18:35:42;101420.06;;;28.93;25.21
13456;BME280;6800;50.940;6.940;2023-05-29T18:39:43;101418.88;;;28.96;25.16
13456;BME280;6800;50.940;6.940;2023-05-29T18:43:45;101435.13;;;28.07;25.80
13456;BME280;6800;50.940;6.940;2023-05-29T18:47:46;101448.25;;;25.84;28.70
13456;BME280;6800;50.940;6.940;2023-05-29T18:51:51;101445.28;;;27.21;26.97
13456;BME280;6800;50.940;6.940;2023-05-29T18:55:52;101448.56;;;27.61;26.25
13456;BME280;6800;50.940;6.940;2023-05-29T18:59:53;101446.44;;;26.16;27.86
13456;BME280;6800;50.940;6.940;2023-05-29T19:03:55;101453.63;;;26.08;28.09
13456;BME280;6800;50.940;6.940;2023-05-29T19:07:57;101453.78;;;27.55;25.53
13456;BME280;6800;50.940;6.940;2023-05-29T19:12:01;101456.75;;;26.44;26.91
13456;BME280;6800;50.940;6.940;2023-05-29T19:16:03;101463.97;;;27.06;26.24
13456;BME280;6800;50.940;6.940;2023-05-29T19:20:05;101461.41;;;26.58;26.93
13456;BME280;6800;50.940;6.940;2023-05-29T19:24:06;101466.16;;;26.15;27.42
13456;BME280;6800;50.940;6.940;2023-05-29T19:28:08;101476.78;;;26.80;26.15
13456;BME280;6800;50.940;6.940;2023-05-29T19:32:09;101478.72;;;26.94;25.88
13456;BME280;6800;50.940;6.940;2023-05-29T19:36:11;101474.97;;;26.56;26.32
13456;BME280;6800;50.940;6.940;2023-05-29T19:40:12;101486.88;;;27.08;25.54
13456;BME280;6800;50.940;6.940;2023-05-29T19:44:14;101498.94;;;25.93;26.97
13456;BME280;6800;50.940;6.940;2023-05-29T19:48:16;101504.66;;;27.10;24.61
13456;BME280;6800;50.940;6.940;2023-05-29T19:52:17;101508.41;;;25.22;26.85
13456;BME280;6800;50.940;6.940;2023-05-29T19:56:21;101507.81;;;26.26;24.81
13456;BME280;6800;50.940;6.940;2023-05-29T20:00:23;101513.47;;;25.99;25.31
13456;BME280;6800;50.940;6.940;2023-05-29T20:04:29;101511.97;;;26.61;24.39
13456;BME280;6800;50.940;6.940;2023-05-29T20:08:31;101516.81;;;25.93;24.99
13456;BME280;6800;50.940;6.940;2023-05-29T20:12:33;101521.06;;;25.45;25.99
13456;BME280;6800;50.940;6.940;2023-05-29T20:16:34;101525.06;;;26.23;25.19
13456;BME280;6800;50.940;6.940;2023-05-29T20:20:36;101530.31;;;25.67;25.54
13456;BME280;6800;50.940;6.940;2023-05-29T20:24:39;101531.81;;;25.62;25.20
13456;BME280;6800;50.940;6.940;2023-05-29T20:28:40;101524.25;;;24.82;25.91
13456;BME280;6800;50.940;6.940;2023-05-29T20:32:42;101537.13;;;26.36;24.08
13456;BME280;6800;50.940;6.940;2023-05-29T20:36:43;101537.59;;;26.15;24.45
13456;BME280;6800;50.940;6.940;2023-05-29T20:40:45;101541.09;;;26.07;24.40
13456;BME280;6800;50.940;6.940;2023-05-29T20:44:49;101532.22;;;25.41;25.33
13456;BME280;6800;50.940;6.940;2023-05-29T20:48:51;101542.19;;;25.23;25.30
13456;BME280;6800;50.940;6.940;2023-05-29T20:52:53;101538.13;;;25.11;25.76
13456;BME280;6800;50.940;6.940;2023-05-29T20:56:54;101544.06;;;25.72;24.92
13456;BME280;6800;50.940;6.940;2023-05-29T21:00:56;101543.41;;;24.77;25.80
13456;BME280;6800;50.940;6.940;2023-05-29T21:04:58;101548.91;;;25.35;25.47
13456;BME280;6800;50.940;6.940;2023-05-29T21:09:00;101540.91;;;25.85;24.21
13456;BME280;6800;50.940;6.940;2023-05-29T21:13:01;101546.16;;;25.11;25.18
13456;BME280;6800;50.940;6.940;2023-05-29T21:17:21;101551.97;;;24.81;25.18
13456;BME280;6800;50.940;6.940;2023-05-29T21:21:22;101552.78;;;25.90;24.76
13456;BME280;6800;50.940;6.940;2023-05-29T21:25:24;101551.34;;;25.20;25.17
13456;BME280;6800;50.940;6.940;2023-05-29T21:29:25;101556.19;;;25.17;25.56
13456;BME280;6800;50.940;6.940;2023-05-29T21:33:27;101551.31;;;24.78;25.87
13456;BME280;6800;50.940;6.940;2023-05-29T21:37:30;101552.72;;;25.66;24.65